Aeroporto :
LOGIN :

Iscrizione | Disclaimer

   EN    FR    IT 

 










Sommario :    VFR   VFR Marginale   IFR   IFR Intensivo   IFR Molto Intensivo
Visibilità : 
Base nubi : 
>= 8 km
>= 3000ft
5 / 8 km
1000 / 3000 ft
1500m / 5 km
500 / 1000 ft
800 / 1500m
200 / 500 ft
< 800m
< 200 ft
Simboli :   Temporali  Nebbia  Neve Forte  Precipitazioni Forti  Vento > 20 kt
SIGMETs :   Varie  Temporali  Ghiacco  Turbolenza  Onda orograficha  Ceneri Vulcaniche






- Altitudine del aeroporto : 249 ft


EGOS - RAF Shawbury

ULTIMO METAR :
  • 192121Z 22017KT 9999 BKN018 09/06 Q1008 TEMPO BKN030 RMK WHT TEMPO BLU

METARs OBSOLETI :
  • 192050Z 23020KT 9999 SCT018 BKN150 09/06 Q1008 TEMPO FEW018 RMK WHT TEMPO BLU
  • 192020Z 23022KT 9999 FEW018 BKN150 09/06 Q1009 TEMPO SCT018 RMK BLU TEMPO WHT
  • 191950Z 23020KT 9999 SCT030 OVC150 09/07 Q1009 TEMPO 23022G32KT SCT020 RMK BLU TEMPO WHT
  • 191920Z 23019KT 9999 FEW018 BKN025 09/07 Q1009 TEMPO 23022G32KT SCT020 RMK BLU TEMPO WHT
  • 191850Z 23024KT 9999 FEW020 BKN030 09/07 Q1009 BECMG 22012G22KT RMK BLU BLU

TAF TAF EGOS
Valido dal 19 a 21 ore il 20 a 01 ore UTC


191950Z 1921/2001 22015G25KT 9999 BKN025
TEMPO 1921/2001 BKN020
PROB30
TEMPO 1921/2001 6000 RA SCT014



MetMap, La meteo Aeronautica in un colpo d'occhio ! - Copyright ORBIFLY Dicembre 2007 - Disclaimer

ORBIFLY MET'MAP TEAM :

Programmazione e sviluppo : Alexandra Zaïnal
Concezione : Baudouin d'Aumeries
Aiuto per la programmazione : Marc-Olivier Méhu
Supporto tecnico e logistico : Manuel Goepfert
Aiuto per la traduzione : Arnaldo La Scala

Contatto : metmap@orbifly.com




FONTI E CREDITI :

   NOAA